sensor_id;sensor_type;location;lat;lon;timestamp;P1;durP1;ratioP1;P2;durP2;ratioP2
17965;SDS011;9108;53.204;10.424;2023-05-19T00:02:16;8.50;;;3.13;;
17965;SDS011;9108;53.204;10.424;2023-05-19T00:04:45;8.20;;;3.37;;
17965;SDS011;9108;53.204;10.424;2023-05-19T00:07:14;9.50;;;3.38;;
17965;SDS011;9108;53.204;10.424;2023-05-19T00:09:43;8.02;;;3.13;;
17965;SDS011;9108;53.204;10.424;2023-05-19T00:12:11;12.13;;;3.40;;
17965;SDS011;9108;53.204;10.424;2023-05-19T00:14:38;12.05;;;3.40;;
17965;SDS011;9108;53.204;10.424;2023-05-19T00:17:07;12.05;;;3.92;;
17965;SDS011;9108;53.204;10.424;2023-05-19T00:19:35;11.75;;;3.67;;
17965;SDS011;9108;53.204;10.424;2023-05-19T00:22:02;11.18;;;3.50;;
17965;SDS011;9108;53.204;10.424;2023-05-19T00:24:30;13.27;;;3.70;;
17965;SDS011;9108;53.204;10.424;2023-05-19T00:26:57;11.43;;;3.80;;
17965;SDS011;9108;53.204;10.424;2023-05-19T00:29:24;13.18;;;3.63;;
17965;SDS011;9108;53.204;10.424;2023-05-19T00:31:51;12.55;;;3.60;;
17965;SDS011;9108;53.204;10.424;2023-05-19T00:34:20;9.40;;;3.38;;
17965;SDS011;9108;53.204;10.424;2023-05-19T00:36:47;9.18;;;3.30;;
17965;SDS011;9108;53.204;10.424;2023-05-19T00:39:14;9.45;;;3.28;;
17965;SDS011;9108;53.204;10.424;2023-05-19T00:41:41;9.20;;;3.90;;
17965;SDS011;9108;53.204;10.424;2023-05-19T00:44:08;8.48;;;3.58;;
17965;SDS011;9108;53.204;10.424;2023-05-19T00:46:36;9.27;;;3.83;;
17965;SDS011;9108;53.204;10.424;2023-05-19T00:49:03;9.85;;;3.58;;
17965;SDS011;9108;53.204;10.424;2023-05-19T00:51:31;8.85;;;3.80;;
17965;SDS011;9108;53.204;10.424;2023-05-19T00:53:58;11.30;;;3.65;;
17965;SDS011;9108;53.204;10.424;2023-05-19T00:56:25;10.10;;;3.60;;
17965;SDS011;9108;53.204;10.424;2023-05-19T00:58:52;8.70;;;3.42;;
17965;SDS011;9108;53.204;10.424;2023-05-19T01:01:20;8.40;;;3.28;;
17965;SDS011;9108;53.204;10.424;2023-05-19T01:03:47;10.20;;;3.60;;
17965;SDS011;9108;53.204;10.424;2023-05-19T01:06:15;11.32;;;3.78;;
17965;SDS011;9108;53.204;10.424;2023-05-19T01:08:44;9.68;;;3.60;;
17965;SDS011;9108;53.204;10.424;2023-05-19T01:11:11;11.75;;;3.78;;
17965;SDS011;9108;53.204;10.424;2023-05-19T01:13:38;10.75;;;3.75;;
17965;SDS011;9108;53.204;10.424;2023-05-19T01:16:06;12.15;;;3.83;;
17965;SDS011;9108;53.204;10.424;2023-05-19T01:18:42;11.63;;;3.60;;
17965;SDS011;9108;53.204;10.424;2023-05-19T01:24:15;11.27;;;3.70;;
17965;SDS011;9108;53.204;10.424;2023-05-19T01:26:53;10.63;;;3.88;;
17965;SDS011;9108;53.204;10.424;2023-05-19T01:32:29;9.52;;;3.95;;
17965;SDS011;9108;53.204;10.424;2023-05-19T01:34:57;9.63;;;3.70;;
17965;SDS011;9108;53.204;10.424;2023-05-19T01:37:25;11.30;;;3.90;;
17965;SDS011;9108;53.204;10.424;2023-05-19T01:39:52;11.48;;;4.00;;
17965;SDS011;9108;53.204;10.424;2023-05-19T01:42:20;10.43;;;3.97;;
17965;SDS011;9108;53.204;10.424;2023-05-19T01:44:48;9.73;;;3.53;;
17965;SDS011;9108;53.204;10.424;2023-05-19T01:47:15;14.10;;;4.03;;
17965;SDS011;9108;53.204;10.424;2023-05-19T01:49:44;9.40;;;3.73;;
17965;SDS011;9108;53.204;10.424;2023-05-19T01:52:11;9.75;;;3.70;;
17965;SDS011;9108;53.204;10.424;2023-05-19T01:54:38;9.77;;;3.85;;
17965;SDS011;9108;53.204;10.424;2023-05-19T01:57:07;10.65;;;3.83;;
17965;SDS011;9108;53.204;10.424;2023-05-19T01:59:41;9.23;;;3.72;;
17965;SDS011;9108;53.204;10.424;2023-05-19T02:02:13;10.35;;;3.88;;
17965;SDS011;9108;53.204;10.424;2023-05-19T02:04:47;10.88;;;4.18;;
17965;SDS011;9108;53.204;10.424;2023-05-19T02:07:19;13.57;;;4.25;;
17965;SDS011;9108;53.204;10.424;2023-05-19T02:09:50;10.70;;;3.85;;
17965;SDS011;9108;53.204;10.424;2023-05-19T02:12:19;8.75;;;4.00;;
17965;SDS011;9108;53.204;10.424;2023-05-19T02:14:51;12.02;;;3.90;;
17965;SDS011;9108;53.204;10.424;2023-05-19T02:17:19;11.68;;;4.10;;
17965;SDS011;9108;53.204;10.424;2023-05-19T02:19:49;10.70;;;3.90;;
17965;SDS011;9108;53.204;10.424;2023-05-19T02:22:16;12.20;;;3.83;;
17965;SDS011;9108;53.204;10.424;2023-05-19T02:24:44;12.02;;;3.92;;
17965;SDS011;9108;53.204;10.424;2023-05-19T02:27:11;11.20;;;4.25;;
17965;SDS011;9108;53.204;10.424;2023-05-19T02:29:39;10.10;;;3.90;;
17965;SDS011;9108;53.204;10.424;2023-05-19T02:32:06;12.25;;;4.00;;
17965;SDS011;9108;53.204;10.424;2023-05-19T02:34:33;13.95;;;3.95;;
17965;SDS011;9108;53.204;10.424;2023-05-19T02:37:02;10.75;;;4.15;;
17965;SDS011;9108;53.204;10.424;2023-05-19T02:39:29;12.45;;;4.10;;
17965;SDS011;9108;53.204;10.424;2023-05-19T02:41:59;16.50;;;4.20;;
17965;SDS011;9108;53.204;10.424;2023-05-19T02:44:26;10.40;;;4.07;;
17965;SDS011;9108;53.204;10.424;2023-05-19T02:46:53;12.50;;;4.30;;
17965;SDS011;9108;53.204;10.424;2023-05-19T02:49:20;12.13;;;4.18;;
17965;SDS011;9108;53.204;10.424;2023-05-19T02:51:47;12.90;;;4.40;;
17965;SDS011;9108;53.204;10.424;2023-05-19T02:54:16;12.95;;;4.40;;
17965;SDS011;9108;53.204;10.424;2023-05-19T02:56:43;14.93;;;4.90;;
17965;SDS011;9108;53.204;10.424;2023-05-19T02:59:10;10.43;;;3.70;;
17965;SDS011;9108;53.204;10.424;2023-05-19T03:01:37;12.15;;;4.20;;
17965;SDS011;9108;53.204;10.424;2023-05-19T03:04:04;14.93;;;4.30;;
17965;SDS011;9108;53.204;10.424;2023-05-19T03:06:31;10.55;;;4.18;;
17965;SDS011;9108;53.204;10.424;2023-05-19T03:08:58;11.20;;;4.15;;
17965;SDS011;9108;53.204;10.424;2023-05-19T03:11:27;12.23;;;4.05;;
17965;SDS011;9108;53.204;10.424;2023-05-19T03:13:54;13.90;;;4.53;;
17965;SDS011;9108;53.204;10.424;2023-05-19T03:16:22;10.95;;;4.13;;
17965;SDS011;9108;53.204;10.424;2023-05-19T03:18:49;10.57;;;4.20;;
17965;SDS011;9108;53.204;10.424;2023-05-19T03:21:16;11.85;;;4.10;;
17965;SDS011;9108;53.204;10.424;2023-05-19T03:23:43;11.45;;;4.50;;
17965;SDS011;9108;53.204;10.424;2023-05-19T03:26:11;11.27;;;3.90;;
17965;SDS011;9108;53.204;10.424;2023-05-19T03:28:39;11.13;;;3.83;;
17965;SDS011;9108;53.204;10.424;2023-05-19T03:31:06;9.18;;;3.90;;
17965;SDS011;9108;53.204;10.424;2023-05-19T03:33:33;10.52;;;4.43;;
17965;SDS011;9108;53.204;10.424;2023-05-19T03:36:00;9.52;;;4.22;;
17965;SDS011;9108;53.204;10.424;2023-05-19T03:38:28;11.90;;;4.10;;
17965;SDS011;9108;53.204;10.424;2023-05-19T03:40:55;13.85;;;4.53;;
17965;SDS011;9108;53.204;10.424;2023-05-19T03:43:22;11.88;;;4.40;;
17965;SDS011;9108;53.204;10.424;2023-05-19T03:45:51;11.35;;;4.35;;
17965;SDS011;9108;53.204;10.424;2023-05-19T03:48:18;11.65;;;4.68;;
17965;SDS011;9108;53.204;10.424;2023-05-19T03:50:45;10.18;;;4.50;;
17965;SDS011;9108;53.204;10.424;2023-05-19T03:53:13;15.63;;;4.85;;
17965;SDS011;9108;53.204;10.424;2023-05-19T03:55:40;11.65;;;4.55;;
17965;SDS011;9108;53.204;10.424;2023-05-19T03:58:08;16.02;;;4.90;;
17965;SDS011;9108;53.204;10.424;2023-05-19T04:00:38;11.35;;;4.40;;
17965;SDS011;9108;53.204;10.424;2023-05-19T04:03:06;11.40;;;4.47;;
17965;SDS011;9108;53.204;10.424;2023-05-19T04:05:34;10.07;;;4.30;;
17965;SDS011;9108;53.204;10.424;2023-05-19T04:08:01;13.60;;;4.35;;
17965;SDS011;9108;53.204;10.424;2023-05-19T04:10:28;14.85;;;4.70;;
17965;SDS011;9108;53.204;10.424;2023-05-19T04:12:55;12.50;;;4.53;;
17965;SDS011;9108;53.204;10.424;2023-05-19T04:15:22;11.85;;;4.70;;
17965;SDS011;9108;53.204;10.424;2023-05-19T04:17:49;16.20;;;4.93;;
17965;SDS011;9108;53.204;10.424;2023-05-19T04:20:18;13.93;;;4.70;;
17965;SDS011;9108;53.204;10.424;2023-05-19T04:22:45;17.75;;;4.68;;
17965;SDS011;9108;53.204;10.424;2023-05-19T04:25:12;10.37;;;4.10;;
17965;SDS011;9108;53.204;10.424;2023-05-19T04:27:39;11.27;;;4.10;;
17965;SDS011;9108;53.204;10.424;2023-05-19T04:30:07;13.15;;;4.40;;
17965;SDS011;9108;53.204;10.424;2023-05-19T04:32:34;15.23;;;4.50;;
17965;SDS011;9108;53.204;10.424;2023-05-19T04:35:03;8.52;;;3.70;;
17965;SDS011;9108;53.204;10.424;2023-05-19T04:37:32;13.52;;;4.07;;
17965;SDS011;9108;53.204;10.424;2023-05-19T04:40:02;10.90;;;4.03;;
17965;SDS011;9108;53.204;10.424;2023-05-19T04:42:30;11.63;;;4.50;;
17965;SDS011;9108;53.204;10.424;2023-05-19T04:44:57;13.13;;;3.95;;
17965;SDS011;9108;53.204;10.424;2023-05-19T04:47:24;15.43;;;4.38;;
17965;SDS011;9108;53.204;10.424;2023-05-19T04:49:52;14.50;;;4.60;;
17965;SDS011;9108;53.204;10.424;2023-05-19T04:52:19;12.23;;;4.07;;
17965;SDS011;9108;53.204;10.424;2023-05-19T04:54:48;13.25;;;4.20;;
17965;SDS011;9108;53.204;10.424;2023-05-19T04:57:15;10.45;;;3.60;;
17965;SDS011;9108;53.204;10.424;2023-05-19T04:59:42;10.38;;;3.58;;
17965;SDS011;9108;53.204;10.424;2023-05-19T05:02:10;13.82;;;3.72;;
17965;SDS011;9108;53.204;10.424;2023-05-19T05:04:37;12.75;;;3.90;;
17965;SDS011;9108;53.204;10.424;2023-05-19T05:07:07;13.63;;;3.40;;
17965;SDS011;9108;53.204;10.424;2023-05-19T05:09:34;12.73;;;3.50;;
17965;SDS011;9108;53.204;10.424;2023-05-19T05:12:03;12.37;;;3.23;;
17965;SDS011;9108;53.204;10.424;2023-05-19T05:14:32;12.50;;;3.40;;
17965;SDS011;9108;53.204;10.424;2023-05-19T05:16:59;10.00;;;3.08;;
17965;SDS011;9108;53.204;10.424;2023-05-19T05:19:27;13.23;;;3.42;;
17965;SDS011;9108;53.204;10.424;2023-05-19T05:21:54;11.80;;;3.38;;
17965;SDS011;9108;53.204;10.424;2023-05-19T05:24:22;11.80;;;3.03;;
17965;SDS011;9108;53.204;10.424;2023-05-19T05:26:49;13.07;;;3.40;;
17965;SDS011;9108;53.204;10.424;2023-05-19T05:29:18;12.77;;;3.30;;
17965;SDS011;9108;53.204;10.424;2023-05-19T05:31:45;12.97;;;3.30;;
17965;SDS011;9108;53.204;10.424;2023-05-19T05:34:12;13.85;;;3.10;;
17965;SDS011;9108;53.204;10.424;2023-05-19T05:36:40;9.18;;;2.70;;
17965;SDS011;9108;53.204;10.424;2023-05-19T05:39:07;12.52;;;3.10;;
17965;SDS011;9108;53.204;10.424;2023-05-19T05:41:34;16.23;;;3.00;;
17965;SDS011;9108;53.204;10.424;2023-05-19T05:44:01;12.20;;;2.70;;
17965;SDS011;9108;53.204;10.424;2023-05-19T05:46:31;10.93;;;2.67;;
17965;SDS011;9108;53.204;10.424;2023-05-19T05:48:59;12.13;;;2.70;;
17965;SDS011;9108;53.204;10.424;2023-05-19T05:51:26;11.95;;;2.58;;
17965;SDS011;9108;53.204;10.424;2023-05-19T05:53:54;10.83;;;2.47;;
17965;SDS011;9108;53.204;10.424;2023-05-19T05:56:21;13.48;;;2.60;;
17965;SDS011;9108;53.204;10.424;2023-05-19T05:58:48;10.85;;;2.50;;
17965;SDS011;9108;53.204;10.424;2023-05-19T06:01:16;10.23;;;2.30;;
17965;SDS011;9108;53.204;10.424;2023-05-19T06:03:44;8.97;;;2.40;;
17965;SDS011;9108;53.204;10.424;2023-05-19T06:06:12;9.65;;;2.20;;
17965;SDS011;9108;53.204;10.424;2023-05-19T06:08:39;9.68;;;2.35;;
17965;SDS011;9108;53.204;10.424;2023-05-19T06:11:06;10.43;;;2.50;;
17965;SDS011;9108;53.204;10.424;2023-05-19T06:13:34;9.38;;;2.13;;
17965;SDS011;9108;53.204;10.424;2023-05-19T06:16:01;8.43;;;1.80;;
17965;SDS011;9108;53.204;10.424;2023-05-19T06:18:28;8.82;;;2.03;;
17965;SDS011;9108;53.204;10.424;2023-05-19T06:20:56;11.00;;;2.10;;
17965;SDS011;9108;53.204;10.424;2023-05-19T06:23:24;7.18;;;2.10;;
17965;SDS011;9108;53.204;10.424;2023-05-19T06:25:53;9.25;;;2.03;;
17965;SDS011;9108;53.204;10.424;2023-05-19T06:28:20;6.70;;;1.85;;
17965;SDS011;9108;53.204;10.424;2023-05-19T06:30:47;9.25;;;1.95;;
17965;SDS011;9108;53.204;10.424;2023-05-19T06:33:14;8.20;;;1.70;;
17965;SDS011;9108;53.204;10.424;2023-05-19T06:35:41;8.35;;;1.92;;
17965;SDS011;9108;53.204;10.424;2023-05-19T06:38:10;7.15;;;2.08;;
17965;SDS011;9108;53.204;10.424;2023-05-19T06:40:37;7.78;;;2.08;;
17965;SDS011;9108;53.204;10.424;2023-05-19T06:43:04;7.57;;;2.00;;
17965;SDS011;9108;53.204;10.424;2023-05-19T06:45:31;9.00;;;1.92;;
17965;SDS011;9108;53.204;10.424;2023-05-19T06:47:58;6.72;;;1.70;;
17965;SDS011;9108;53.204;10.424;2023-05-19T06:50:25;6.30;;;1.50;;
17965;SDS011;9108;53.204;10.424;2023-05-19T06:52:52;6.30;;;1.50;;
17965;SDS011;9108;53.204;10.424;2023-05-19T06:55:22;7.55;;;1.60;;
17965;SDS011;9108;53.204;10.424;2023-05-19T06:57:50;6.95;;;1.67;;
17965;SDS011;9108;53.204;10.424;2023-05-19T07:00:17;8.20;;;1.80;;
17965;SDS011;9108;53.204;10.424;2023-05-19T07:02:44;8.05;;;1.80;;
17965;SDS011;9108;53.204;10.424;2023-05-19T07:05:11;5.88;;;1.50;;
17965;SDS011;9108;53.204;10.424;2023-05-19T07:07:38;6.65;;;1.42;;
17965;SDS011;9108;53.204;10.424;2023-05-19T07:10:06;9.77;;;1.67;;
17965;SDS011;9108;53.204;10.424;2023-05-19T07:12:34;7.22;;;1.45;;
17965;SDS011;9108;53.204;10.424;2023-05-19T07:15:01;4.72;;;1.30;;
17965;SDS011;9108;53.204;10.424;2023-05-19T07:17:29;6.07;;;1.48;;
17965;SDS011;9108;53.204;10.424;2023-05-19T07:19:56;5.20;;;1.20;;
17965;SDS011;9108;53.204;10.424;2023-05-19T07:22:23;5.18;;;1.30;;
17965;SDS011;9108;53.204;10.424;2023-05-19T07:24:50;5.20;;;1.25;;
17965;SDS011;9108;53.204;10.424;2023-05-19T07:27:17;4.47;;;1.20;;
17965;SDS011;9108;53.204;10.424;2023-05-19T07:29:45;4.85;;;1.10;;
17965;SDS011;9108;53.204;10.424;2023-05-19T07:32:13;6.40;;;1.20;;
17965;SDS011;9108;53.204;10.424;2023-05-19T07:34:40;4.38;;;1.13;;
17965;SDS011;9108;53.204;10.424;2023-05-19T07:37:07;6.10;;;1.38;;
17965;SDS011;9108;53.204;10.424;2023-05-19T07:39:34;4.18;;;1.15;;
17965;SDS011;9108;53.204;10.424;2023-05-19T07:42:01;4.47;;;1.27;;
17965;SDS011;9108;53.204;10.424;2023-05-19T07:44:29;4.32;;;1.20;;
17965;SDS011;9108;53.204;10.424;2023-05-19T07:46:57;4.88;;;1.20;;
17965;SDS011;9108;53.204;10.424;2023-05-19T07:49:25;5.72;;;1.02;;
17965;SDS011;9108;53.204;10.424;2023-05-19T07:51:52;3.92;;;1.05;;
17965;SDS011;9108;53.204;10.424;2023-05-19T07:54:19;4.97;;;1.10;;
17965;SDS011;9108;53.204;10.424;2023-05-19T07:56:47;5.03;;;1.20;;
17965;SDS011;9108;53.204;10.424;2023-05-19T07:59:14;7.43;;;1.20;;
17965;SDS011;9108;53.204;10.424;2023-05-19T08:01:44;5.15;;;1.15;;
17965;SDS011;9108;53.204;10.424;2023-05-19T08:04:13;6.43;;;1.20;;
17965;SDS011;9108;53.204;10.424;2023-05-19T08:06:40;5.53;;;1.20;;
17965;SDS011;9108;53.204;10.424;2023-05-19T08:09:08;4.53;;;1.10;;
17965;SDS011;9108;53.204;10.424;2023-05-19T08:11:35;6.63;;;1.10;;
17965;SDS011;9108;53.204;10.424;2023-05-19T08:14:03;4.30;;;1.13;;
17965;SDS011;9108;53.204;10.424;2023-05-19T08:16:30;4.00;;;1.20;;
17965;SDS011;9108;53.204;10.424;2023-05-19T08:18:57;5.43;;;1.10;;
17965;SDS011;9108;53.204;10.424;2023-05-19T08:21:27;4.55;;;1.10;;
17965;SDS011;9108;53.204;10.424;2023-05-19T08:23:55;5.07;;;1.15;;
17965;SDS011;9108;53.204;10.424;2023-05-19T08:26:22;3.67;;;1.10;;
17965;SDS011;9108;53.204;10.424;2023-05-19T08:28:50;5.65;;;1.27;;
17965;SDS011;9108;53.204;10.424;2023-05-19T08:31:17;5.27;;;1.27;;
17965;SDS011;9108;53.204;10.424;2023-05-19T08:33:44;5.63;;;1.10;;
17965;SDS011;9108;53.204;10.424;2023-05-19T08:36:11;6.20;;;1.40;;
17965;SDS011;9108;53.204;10.424;2023-05-19T08:38:40;7.03;;;1.50;;
17965;SDS011;9108;53.204;10.424;2023-05-19T08:41:07;7.20;;;1.60;;
17965;SDS011;9108;53.204;10.424;2023-05-19T08:43:34;7.78;;;1.75;;
17965;SDS011;9108;53.204;10.424;2023-05-19T08:46:03;6.43;;;1.50;;
17965;SDS011;9108;53.204;10.424;2023-05-19T08:48:32;6.10;;;1.52;;
17965;SDS011;9108;53.204;10.424;2023-05-19T08:51:02;6.63;;;1.50;;
17965;SDS011;9108;53.204;10.424;2023-05-19T08:53:31;13.85;;;1.98;;
17965;SDS011;9108;53.204;10.424;2023-05-19T08:56:09;10.25;;;1.58;;
17965;SDS011;9108;53.204;10.424;2023-05-19T08:58:37;11.77;;;1.80;;
17965;SDS011;9108;53.204;10.424;2023-05-19T09:01:05;8.10;;;1.60;;
17965;SDS011;9108;53.204;10.424;2023-05-19T09:03:33;6.45;;;1.75;;
17965;SDS011;9108;53.204;10.424;2023-05-19T09:06:03;7.30;;;1.38;;
17965;SDS011;9108;53.204;10.424;2023-05-19T09:08:31;5.77;;;1.47;;
17965;SDS011;9108;53.204;10.424;2023-05-19T09:10:58;7.35;;;1.50;;
17965;SDS011;9108;53.204;10.424;2023-05-19T09:13:27;7.05;;;1.50;;
17965;SDS011;9108;53.204;10.424;2023-05-19T09:15:54;6.63;;;1.60;;
17965;SDS011;9108;53.204;10.424;2023-05-19T09:18:23;6.18;;;1.67;;
17965;SDS011;9108;53.204;10.424;2023-05-19T09:20:50;10.10;;;1.88;;
17965;SDS011;9108;53.204;10.424;2023-05-19T09:23:23;5.88;;;1.48;;
17965;SDS011;9108;53.204;10.424;2023-05-19T09:25:53;8.57;;;1.73;;
17965;SDS011;9108;53.204;10.424;2023-05-19T09:28:22;5.73;;;1.50;;
17965;SDS011;9108;53.204;10.424;2023-05-19T09:30:58;8.30;;;1.42;;
17965;SDS011;9108;53.204;10.424;2023-05-19T09:33:26;11.27;;;1.70;;
17965;SDS011;9108;53.204;10.424;2023-05-19T09:35:53;5.97;;;1.50;;
17965;SDS011;9108;53.204;10.424;2023-05-19T09:38:21;6.68;;;1.60;;
17965;SDS011;9108;53.204;10.424;2023-05-19T09:40:49;5.47;;;1.33;;
17965;SDS011;9108;53.204;10.424;2023-05-19T09:43:16;5.80;;;1.42;;
17965;SDS011;9108;53.204;10.424;2023-05-19T09:45:43;7.28;;;1.42;;
17965;SDS011;9108;53.204;10.424;2023-05-19T09:48:12;7.72;;;1.40;;
17965;SDS011;9108;53.204;10.424;2023-05-19T09:50:41;6.50;;;1.65;;
17965;SDS011;9108;53.204;10.424;2023-05-19T09:53:10;6.05;;;1.40;;
17965;SDS011;9108;53.204;10.424;2023-05-19T09:55:38;8.55;;;1.70;;
17965;SDS011;9108;53.204;10.424;2023-05-19T09:58:06;8.07;;;1.55;;
17965;SDS011;9108;53.204;10.424;2023-05-19T10:00:34;4.78;;;1.35;;
17965;SDS011;9108;53.204;10.424;2023-05-19T10:03:02;5.47;;;1.60;;
17965;SDS011;9108;53.204;10.424;2023-05-19T10:05:31;4.90;;;1.40;;
17965;SDS011;9108;53.204;10.424;2023-05-19T10:07:58;6.40;;;1.50;;
17965;SDS011;9108;53.204;10.424;2023-05-19T10:10:26;4.53;;;1.40;;
17965;SDS011;9108;53.204;10.424;2023-05-19T10:12:55;4.95;;;1.50;;
17965;SDS011;9108;53.204;10.424;2023-05-19T10:15:22;5.30;;;1.50;;
17965;SDS011;9108;53.204;10.424;2023-05-19T10:17:49;8.57;;;1.52;;
17965;SDS011;9108;53.204;10.424;2023-05-19T10:20:17;5.55;;;1.50;;
17965;SDS011;9108;53.204;10.424;2023-05-19T10:22:45;5.30;;;1.30;;
17965;SDS011;9108;53.204;10.424;2023-05-19T10:25:13;6.80;;;1.50;;
17965;SDS011;9108;53.204;10.424;2023-05-19T10:27:43;5.05;;;1.50;;
17965;SDS011;9108;53.204;10.424;2023-05-19T10:30:12;5.13;;;1.30;;
17965;SDS011;9108;53.204;10.424;2023-05-19T10:32:41;4.95;;;1.30;;
17965;SDS011;9108;53.204;10.424;2023-05-19T10:35:15;6.32;;;1.42;;
17965;SDS011;9108;53.204;10.424;2023-05-19T10:37:50;4.18;;;1.20;;
17965;SDS011;9108;53.204;10.424;2023-05-19T10:40:20;5.95;;;1.40;;
17965;SDS011;9108;53.204;10.424;2023-05-19T10:42:52;5.57;;;1.20;;
17965;SDS011;9108;53.204;10.424;2023-05-19T10:45:26;6.05;;;1.58;;
17965;SDS011;9108;53.204;10.424;2023-05-19T10:47:54;4.82;;;1.20;;
17965;SDS011;9108;53.204;10.424;2023-05-19T10:50:22;6.00;;;1.45;;
17965;SDS011;9108;53.204;10.424;2023-05-19T10:52:52;5.00;;;1.37;;
17965;SDS011;9108;53.204;10.424;2023-05-19T10:58:04;5.57;;;1.40;;
17965;SDS011;9108;53.204;10.424;2023-05-19T11:00:31;6.15;;;1.30;;
17965;SDS011;9108;53.204;10.424;2023-05-19T11:03:10;6.13;;;1.40;;
17965;SDS011;9108;53.204;10.424;2023-05-19T11:05:38;4.13;;;1.30;;
17965;SDS011;9108;53.204;10.424;2023-05-19T11:08:06;4.57;;;1.23;;
17965;SDS011;9108;53.204;10.424;2023-05-19T11:10:35;3.60;;;1.15;;
17965;SDS011;9108;53.204;10.424;2023-05-19T11:13:03;4.72;;;1.50;;
17965;SDS011;9108;53.204;10.424;2023-05-19T11:15:33;2.53;;;1.10;;
17965;SDS011;9108;53.204;10.424;2023-05-19T11:18:01;5.47;;;1.30;;
17965;SDS011;9108;53.204;10.424;2023-05-19T11:20:28;4.18;;;1.30;;
17965;SDS011;9108;53.204;10.424;2023-05-19T11:23:07;4.38;;;1.20;;
17965;SDS011;9108;53.204;10.424;2023-05-19T11:25:41;7.25;;;1.52;;
17965;SDS011;9108;53.204;10.424;2023-05-19T11:28:09;5.97;;;1.45;;
17965;SDS011;9108;53.204;10.424;2023-05-19T11:30:39;3.92;;;1.10;;
17965;SDS011;9108;53.204;10.424;2023-05-19T11:33:07;4.80;;;1.40;;
17965;SDS011;9108;53.204;10.424;2023-05-19T11:35:34;6.00;;;1.27;;
17965;SDS011;9108;53.204;10.424;2023-05-19T11:38:02;3.33;;;1.10;;
17965;SDS011;9108;53.204;10.424;2023-05-19T11:40:30;3.13;;;1.20;;
17965;SDS011;9108;53.204;10.424;2023-05-19T11:42:58;2.83;;;1.20;;
17965;SDS011;9108;53.204;10.424;2023-05-19T11:45:26;3.57;;;1.20;;
17965;SDS011;9108;53.204;10.424;2023-05-19T11:47:54;5.25;;;1.25;;
17965;SDS011;9108;53.204;10.424;2023-05-19T11:50:21;4.43;;;1.10;;
17965;SDS011;9108;53.204;10.424;2023-05-19T11:52:49;4.20;;;1.17;;
17965;SDS011;9108;53.204;10.424;2023-05-19T11:55:16;4.90;;;1.20;;
17965;SDS011;9108;53.204;10.424;2023-05-19T11:58:00;6.13;;;1.23;;
17965;SDS011;9108;53.204;10.424;2023-05-19T12:00:28;2.92;;;1.30;;
17965;SDS011;9108;53.204;10.424;2023-05-19T12:02:55;5.72;;;1.48;;
17965;SDS011;9108;53.204;10.424;2023-05-19T12:05:23;3.80;;;1.40;;
17965;SDS011;9108;53.204;10.424;2023-05-19T12:07:51;3.95;;;1.30;;
17965;SDS011;9108;53.204;10.424;2023-05-19T12:10:20;3.17;;;1.25;;
17965;SDS011;9108;53.204;10.424;2023-05-19T12:12:47;5.15;;;1.33;;
17965;SDS011;9108;53.204;10.424;2023-05-19T12:15:18;7.15;;;1.48;;
17965;SDS011;9108;53.204;10.424;2023-05-19T12:17:47;4.22;;;1.20;;
17965;SDS011;9108;53.204;10.424;2023-05-19T12:20:15;5.40;;;1.23;;
17965;SDS011;9108;53.204;10.424;2023-05-19T12:22:42;3.63;;;1.10;;
17965;SDS011;9108;53.204;10.424;2023-05-19T12:25:10;2.63;;;1.15;;
17965;SDS011;9108;53.204;10.424;2023-05-19T12:27:37;5.30;;;1.13;;
17965;SDS011;9108;53.204;10.424;2023-05-19T12:30:05;5.57;;;1.70;;
17965;SDS011;9108;53.204;10.424;2023-05-19T12:32:33;6.28;;;1.30;;
17965;SDS011;9108;53.204;10.424;2023-05-19T12:35:01;4.22;;;1.42;;
17965;SDS011;9108;53.204;10.424;2023-05-19T12:37:29;4.50;;;1.33;;
17965;SDS011;9108;53.204;10.424;2023-05-19T12:39:57;3.40;;;1.20;;
17965;SDS011;9108;53.204;10.424;2023-05-19T12:42:25;5.07;;;1.30;;
17965;SDS011;9108;53.204;10.424;2023-05-19T12:44:55;4.65;;;1.23;;
17965;SDS011;9108;53.204;10.424;2023-05-19T12:47:28;4.70;;;1.27;;
17965;SDS011;9108;53.204;10.424;2023-05-19T12:49:59;5.38;;;1.25;;
17965;SDS011;9108;53.204;10.424;2023-05-19T12:52:27;3.37;;;1.13;;
17965;SDS011;9108;53.204;10.424;2023-05-19T12:54:57;4.70;;;1.50;;
17965;SDS011;9108;53.204;10.424;2023-05-19T12:57:25;3.85;;;1.30;;
17965;SDS011;9108;53.204;10.424;2023-05-19T12:59:53;4.03;;;1.27;;
17965;SDS011;9108;53.204;10.424;2023-05-19T13:02:25;3.90;;;1.45;;
17965;SDS011;9108;53.204;10.424;2023-05-19T13:04:52;4.65;;;1.20;;
17965;SDS011;9108;53.204;10.424;2023-05-19T13:07:21;4.28;;;1.25;;
17965;SDS011;9108;53.204;10.424;2023-05-19T13:09:48;5.22;;;1.30;;
17965;SDS011;9108;53.204;10.424;2023-05-19T13:12:15;3.67;;;1.20;;
17965;SDS011;9108;53.204;10.424;2023-05-19T13:14:43;6.03;;;1.25;;
17965;SDS011;9108;53.204;10.424;2023-05-19T13:17:10;6.22;;;1.30;;
17965;SDS011;9108;53.204;10.424;2023-05-19T13:19:37;4.38;;;1.20;;
17965;SDS011;9108;53.204;10.424;2023-05-19T13:22:04;6.17;;;1.57;;
17965;SDS011;9108;53.204;10.424;2023-05-19T13:24:33;4.72;;;1.35;;
17965;SDS011;9108;53.204;10.424;2023-05-19T13:27:00;2.92;;;1.20;;
17965;SDS011;9108;53.204;10.424;2023-05-19T13:29:29;5.18;;;1.25;;
17965;SDS011;9108;53.204;10.424;2023-05-19T13:31:56;4.85;;;1.23;;
17965;SDS011;9108;53.204;10.424;2023-05-19T13:34:23;3.65;;;1.20;;
17965;SDS011;9108;53.204;10.424;2023-05-19T13:36:51;3.72;;;1.30;;
17965;SDS011;9108;53.204;10.424;2023-05-19T13:39:18;3.85;;;1.25;;
17965;SDS011;9108;53.204;10.424;2023-05-19T13:41:47;3.13;;;1.40;;
17965;SDS011;9108;53.204;10.424;2023-05-19T13:44:14;5.07;;;1.38;;
17965;SDS011;9108;53.204;10.424;2023-05-19T13:46:41;3.67;;;1.20;;
17965;SDS011;9108;53.204;10.424;2023-05-19T13:49:08;3.92;;;1.40;;
17965;SDS011;9108;53.204;10.424;2023-05-19T13:51:35;4.50;;;1.35;;
17965;SDS011;9108;53.204;10.424;2023-05-19T13:54:03;5.90;;;1.25;;
17965;SDS011;9108;53.204;10.424;2023-05-19T13:56:30;4.05;;;1.20;;
17965;SDS011;9108;53.204;10.424;2023-05-19T13:58:59;3.70;;;1.35;;
17965;SDS011;9108;53.204;10.424;2023-05-19T14:01:28;4.50;;;1.33;;
17965;SDS011;9108;53.204;10.424;2023-05-19T14:03:55;4.38;;;1.45;;
17965;SDS011;9108;53.204;10.424;2023-05-19T14:06:22;5.75;;;1.40;;
17965;SDS011;9108;53.204;10.424;2023-05-19T14:08:49;3.47;;;1.30;;
17965;SDS011;9108;53.204;10.424;2023-05-19T14:11:16;4.60;;;1.23;;
17965;SDS011;9108;53.204;10.424;2023-05-19T14:13:46;4.55;;;1.30;;
17965;SDS011;9108;53.204;10.424;2023-05-19T14:16:15;4.75;;;1.40;;
17965;SDS011;9108;53.204;10.424;2023-05-19T14:18:42;3.25;;;1.17;;
17965;SDS011;9108;53.204;10.424;2023-05-19T14:21:09;4.87;;;1.43;;
17965;SDS011;9108;53.204;10.424;2023-05-19T14:23:37;5.25;;;1.30;;
17965;SDS011;9108;53.204;10.424;2023-05-19T14:26:04;5.43;;;1.40;;
17965;SDS011;9108;53.204;10.424;2023-05-19T14:28:31;4.72;;;1.33;;
17965;SDS011;9108;53.204;10.424;2023-05-19T14:30:58;2.92;;;1.30;;
17965;SDS011;9108;53.204;10.424;2023-05-19T14:33:26;5.82;;;1.33;;
17965;SDS011;9108;53.204;10.424;2023-05-19T14:35:53;7.25;;;1.60;;
17965;SDS011;9108;53.204;10.424;2023-05-19T14:38:23;4.55;;;1.40;;
17965;SDS011;9108;53.204;10.424;2023-05-19T14:40:51;4.85;;;1.40;;
17965;SDS011;9108;53.204;10.424;2023-05-19T14:43:18;4.22;;;1.40;;
17965;SDS011;9108;53.204;10.424;2023-05-19T14:45:48;4.70;;;1.63;;
17965;SDS011;9108;53.204;10.424;2023-05-19T14:48:15;3.70;;;1.30;;
17965;SDS011;9108;53.204;10.424;2023-05-19T14:50:44;5.20;;;1.20;;
17965;SDS011;9108;53.204;10.424;2023-05-19T14:53:13;3.92;;;1.30;;
17965;SDS011;9108;53.204;10.424;2023-05-19T14:55:40;5.33;;;1.30;;
17965;SDS011;9108;53.204;10.424;2023-05-19T14:58:07;6.32;;;1.52;;